Grant, NE

1:24 AM MDT on July 29, 2014 (GMT -0600)
Searle (KOGA) Elev 3278 ft | 41.12 °N, 101.77 °W | Change Station

Current weather conditions updated 9 minutes ago

Clear
Clear
62 °F
Feels Like 62 °F
N
7
Wind Variable Wind from East

Today is forecast to be nearly the same temperature as yesterday. Rain with a few rumbles of thunder tonight.

Today
High -- | Low -- °F
--% Chance of Precip.
Yesterday
High -- | Low -- °F
Precip. -- in
5:40 AM 8:05 PM
Waxing Crescent, 5% visible
Pressure 30.22 in
Visibility 10.0 miles
Clouds Clear
Dew Point 57 °F
Humidity 86%
Rainfall 0.00 in
Snow Depth Not available.
UV 0 out of 12
Pollen 7.10 out of 12
Air Quality Not available.
Flu Activity Not available.
METAR KOGA 290715Z AUTO 10006KT 10SM CLR 17/14 A3022 RMK AO2 T01650141

More Conditions Fewer Conditions

Pressure 30.22 in
Visibility 10.0 miles
Clouds Clear
Dew Point 57 °F
Humidity 86%
Rainfall 0.00 in
Snow Depth Not available.
UV 0 out of 12
Pollen 7.10 out of 12
Air Quality Not available.
Flu Activity Not available.
METAR KOGA 290715Z AUTO 10006KT 10SM CLR 17/14 A3022 RMK AO2 T01650141

More Conditions Fewer Conditions

10-Day Weather Forecast

Almanac

Astronomy

Jul. 29, 2014 Rise Set
Actual Time 5:40 AM MDT 8:05 PM MDT
Civil Twilight 5:09 AM MDT 8:36 PM MDT
Nautical Twilight 4:30 AM MDT 9:15 PM MDT
Astronomical Twilight 3:47 AM MDT 9:57 PM MDT
Moon 8:20 AM MDT 9:17 PM MDT
Length of Visible Light 15h 27m
Length of Day
14h 25m
Tomorrow will be 1m 59s shorter.
Waxing Crescent, 5% of the Moon is Illuminated
Today
Waxing Crescent
Aug 3
First Quarter
Aug 10
Full
Aug 17
Last Quarter
Aug 25
New

Today's Extremes

State Highs State Lows

Community

WunderPhotos

Upload Photos

1,738,651 photos uploaded!

Nearby

Snow Depth

Station Depth Elevation
No new snow has been reported.

Earthquake Activity

City Distance Mag. Time & Date
No recent earthquake activity has been reported nearby.
Minimum magnitude displayed is 2.5.

Coastal Water Temperatures

Place Temperature
No Stations Reporting

Nearby Weather Stations

Station Location Temp. Dew Point Humidity Wind Precip. Elev Updated Type
Sisco Fertilizer, Elsie, NE 62.5 °F 58 °F 84% SE  at  12.0 mph 0.00 in / hr 3415 ft 1:24 AM MDT Rapid Fire
Ogallala, NE 63.2 °F 58 °F 83% East  at  0.0 mph 0.00 in / hr 3243 ft 1:20 AM MDT Normal
MesoWest OGALWS , Ogallala, NE 60 °F - - ESE  at  5 mph 0.00 in / hr 3206 ft 12:00 AM MDT MADIS
MesoWest OGALA2 , Ogallala, NE 59 °F - - North  at  - 0.00 in / hr 3172 ft 12:00 AM MDT MADIS
MesoWest BIGSWS , Big Springs, NE 68 °F - - East  at  6 mph 0.00 in / hr 3356 ft 12:00 AM MDT MADIS

Show More Stations Show Fewer Stations